x

8557380 - Lewes, De (lwsd1) Weather Station

1:30pm - Fri 28th Aug 2015 All times are EDT. -4 hours from GMT.

  • Wind
    7mph
  • Sea Temp 75°f
  • Air Temp 73°f
  • Sea Pressure 1022.5mb
  • 8557380 - Lewes, De
  • 8557380 - Lewes, De

More Historic Weather Station data

Upgrade to MSW Pro to gain access to the past 30 days of data for over 8000 Wavebouys and Weather Stations around the globe.

Join Pro

Comparision Forecast

View Surf forecast
   
Fri 08/28 1:30pm 7
mph
1022.5mb 75f 73f
1:24pm 1 5 mph 1022.5mb 75f 74f
1:18pm 6 7 mph 1022.6mb 75f 73f
1:12pm 5 6 mph 1022.6mb 75f 73f
1:06pm 5 6 mph 1022.7mb 75f 73f
1:00pm 6 7 mph 1022.8mb 75f 73f
12:54pm 6 7 mph 1022.8mb 75f 73f
12:48pm 5 6 mph 1022.8mb 75f 73f
12:42pm 6 7 mph 1022.9mb 75f 72f
12:36pm 6 7 mph 1022.9mb 75f 72f
12:30pm 6
mph
1022.9mb 75f 72f
12:24pm 6 7 mph 1022.9mb 75f 73f
12:18pm 6 7 mph 1023mb 75f 72f
12:12pm 6 7 mph 1023mb 75f 72f
12:06pm 6 8 mph 1023mb 75f 72f
12:00pm 6 7 mph 1023.1mb 75f 72f
11:54am 6 8 mph 1023.1mb 75f 72f
11:48am 7 8 mph 1023mb 75f 72f
11:42am 6 7 mph 1023.1mb 75f 72f
11:36am 7 8 mph 1023.1mb 75f 72f
11:30am 7 8 mph 1023.1mb 75f 72f
11:24am 7 8 mph 1023.1mb 75f 72f
11:18am 3 8 mph 1023.2mb 75f 73f
11:12am 7 8 mph 1023.2mb 75f 72f
11:06am 6 7 mph 1023.1mb 75f 72f
11:00am 6 7 mph 1023.1mb 75f 72f
10:54am 7 8 mph 1023.1mb 75f 72f
10:48am 7 8 mph 1023.1mb 75f 72f
10:42am 8 9 mph 1023mb 75f 72f
10:36am 8 9 mph 1022.9mb 75f 71f
10:30am 8 9 mph 1022.8mb 75f 71f
10:24am 8 9 mph 1022.8mb 75f 72f
10:18am 8 9 mph 1022.8mb 75f 71f
10:12am 8 9 mph 1022.7mb 75f 72f
10:06am 9 11 mph 1022.7mb 75f 71f
10:00am 9 10 mph 1022.7mb 75f 71f
9:54am 7 11 mph 1022.6mb 75f 72f
9:48am 11 13 mph 1022.5mb 75f 71f
9:42am 10 11 mph 1022.5mb 75f 71f
9:36am 10 11 mph 1022.4mb 75f 71f
9:30am 10 13 mph 1022.3mb 75f 71f
9:24am 10 11 mph 1022.3mb 75f 71f
9:18am 9 11 mph 1022.2mb 75f 71f
9:12am 9 10 mph 1022.1mb 75f 71f
9:06am 10 11 mph 1022mb 75f 71f
9:00am 9 11 mph 1022mb 75f 71f
8:54am 10 11 mph 1021.9mb 75f 71f
8:48am 11 13 mph 1021.8mb 75f 71f
8:42am 10 13 mph 1021.8mb 75f 71f
8:36am 11 13 mph 1021.7mb 75f 71f
8:30am 13 14 mph 1021.6mb 75f 71f
8:24am 11 14 mph 1021.6mb 75f 71f
8:18am 13 14 mph 1021.5mb 75f 70f
8:12am 11 13 mph 1021.5mb 75f 71f
8:06am 13 15 mph 1021.4mb 75f 70f
8:00am 13 14 mph 1021.3mb 75f 71f
7:54am 11 14 mph 1021.3mb 74f 71f
7:48am 11 14 mph 1021.3mb 74f 71f
7:42am 13 14 mph 1021.2mb 74f 71f
7:36am 13 15 mph 1021.2mb 74f 71f
7:30am 11 14 mph 1021.2mb 74f 71f
7:24am 13 14 mph 1021.2mb 74f 71f
7:18am 13 15 mph 1021.2mb 74f 71f
7:12am 13 14 mph 1021.1mb 74f 71f
7:06am 16 17 mph 1021.1mb 74f 71f
7:00am 15 16 mph 1021.1mb 74f 71f
6:54am 14 16 mph 1021mb 74f 71f
6:48am 11 14 mph 1020.9mb 74f 71f
6:42am 13 14 mph 1020.9mb 75f 72f
6:36am 11 14 mph 1020.9mb 75f 72f
6:30am 10 11 mph 1020.8mb 75f 71f
6:24am 10 11 mph 1020.7mb 75f 72f
6:18am 9 11 mph 1020.6mb 75f 72f
6:12am 9 10 mph 1020.5mb 75f 72f
6:06am 10 11 mph 1020.5mb 75f 72f
6:00am 9 10 mph 1020.5mb 75f 72f
5:54am 9
mph
1020.4mb 75f 72f
5:48am 8 9 mph 1020.3mb 75f 72f
5:42am 7 8 mph 1020.3mb 75f 72f
5:36am 7 8 mph 1020.3mb 76f 72f
5:30am 8 9 mph 1020.3mb 76f 72f
5:24am 7 9 mph 1020.2mb 76f 72f
5:18am 8 9 mph 1020.2mb 76f 72f
5:12am 7 9 mph 1020.2mb 76f 72f
5:06am 7 9 mph 1020.1mb 76f 72f
5:00am 8 9 mph 1020.1mb 76f 72f
4:54am 8 9 mph 1020mb 76f 72f
4:48am 9
mph
1020.1mb 76f 72f
4:42am 9 10 mph 1020.1mb 76f 72f
4:36am 8 9 mph 1020.1mb 76f 73f
4:30am 8 9 mph 1020.1mb 76f 73f
4:24am 8
mph
1020.1mb 76f 73f
4:18am 7 8 mph 1020.1mb 76f 73f
4:12am 7 8 mph 1020.1mb 76f 73f
4:06am 8
mph
1020.1mb 76f 73f
4:00am 8 9 mph 1020.1mb 76f 73f
3:54am 9 10 mph 1020.1mb 76f 73f
3:48am 9
mph
1020.1mb 76f 73f
3:42am 9 10 mph 1020.1mb 76f 73f
3:36am 9 10 mph 1020.1mb 76f 73f
3:30am 9 10 mph 1020.2mb 76f 73f
3:24am 9 10 mph 1020.2mb 76f 73f
3:18am  -  mph - - 73f
3:12am  -  mph - - 73f
3:06am  -  mph - - 73f
3:00am 9 10 mph 1020.1mb 76f 73f
2:54am 9 10 mph 1020.1mb 76f 73f
2:48am 9 10 mph 1020.2mb 76f 73f
2:42am 9 10 mph 1020.2mb 76f 73f
2:36am 9 10 mph 1020.2mb 76f 73f
2:30am 9 10 mph 1020.2mb 76f 73f
2:24am 9 10 mph 1020.2mb 76f 73f
2:18am 9 10 mph 1020.2mb 76f 73f
2:12am 10 11 mph 1020.2mb 76f 73f
2:06am 10 11 mph 1020.2mb 76f 73f
2:00am 9 11 mph 1020.3mb 76f 74f
1:54am 10 13 mph 1020.3mb 76f 74f
1:48am 11 13 mph 1020.2mb 76f 74f
1:42am 11 14 mph 1020.2mb 76f 74f
1:36am 11 13 mph 1020.3mb 76f 74f
1:30am 11 13 mph 1020.3mb 77f 74f
1:24am 13 14 mph 1020.3mb 77f 74f
1:18am 11 13 mph 1020.3mb 77f 74f
1:12am 11 13 mph 1020.3mb 77f 74f
1:06am 13 14 mph 1020.4mb 77f 74f
1:00am 11 13 mph 1020.5mb 77f 74f
12:54am 6 9 mph 1020.5mb 77f 71f
12:48am 5 6 mph 1020.5mb 77f 70f
12:42am 5 9 mph 1020.5mb 77f 70f
12:36am 6 8 mph 1020.4mb 77f 71f
12:30am 9 11 mph 1020.4mb 77f 74f
12:24am 10 14 mph 1020.4mb 77f 74f
12:18am 5 8 mph 1020.4mb 77f 70f
12:12am 6 7 mph 1020.3mb 77f 70f
12:06am 7 8 mph 1020.3mb 77f 69f
12:00am 6 7 mph 1020.3mb 77f 69f
Thu 08/27 11:54pm 6 7 mph 1020.3mb 77f 69f
11:48pm 6 7 mph 1020.3mb 77f 69f
11:42pm 6 7 mph 1020.2mb 77f 70f
11:36pm 7 8 mph 1020.3mb 77f 70f
11:30pm 6 7 mph 1020.3mb 77f 70f
11:24pm 3 6 mph 1020.3mb 77f 71f
11:18pm 5 9 mph 1020.3mb 77f 70f
11:12pm 5
mph
1020.2mb 77f 69f
11:06pm 5 6 mph 1020.3mb 77f 69f
11:00pm 5
mph
1020.3mb 77f 69f
10:54pm 6 7 mph 1020.3mb 77f 69f
10:48pm 6 7 mph 1020.2mb 77f 70f
10:42pm 5 6 mph 1020.1mb 77f 70f
10:36pm 7 8 mph 1020.1mb 77f 70f
10:30pm 6 7 mph 1020.1mb 77f 71f
10:24pm 5 6 mph 1020mb 77f 71f
10:18pm 6
mph
1020mb 77f 71f
10:12pm 6 7 mph 1019.9mb 77f 71f
10:06pm 7 8 mph 1019.9mb 77f 72f
10:00pm 8 9 mph 1019.9mb 77f 73f
9:54pm 10 14 mph 1019.8mb 77f 75f
9:48pm 9 11 mph 1019.8mb 77f 75f
9:42pm 13 15 mph 1019.7mb 77f 75f
9:36pm 10 13 mph 1019.7mb 77f 74f
9:30pm 7 8 mph 1019.6mb 77f 72f
9:24pm 7 10 mph 1019.6mb 77f 72f
9:18pm 5 6 mph 1019.5mb 77f 72f
9:12pm 6
mph
1019.5mb 77f 73f
9:06pm 5 6 mph 1019.4mb 77f 72f
9:00pm 5
mph
1019.4mb 77f 73f
8:54pm 5 6 mph 1019.3mb 77f 73f
8:48pm 5 6 mph 1019.2mb 77f 73f
8:42pm 6
mph
1019.1mb 77f 74f
8:36pm 3
mph
1019mb 77f 74f
8:30pm 3
mph
1018.9mb 77f 74f
8:24pm 3 5 mph 1018.8mb 77f 74f
8:18pm 2 3 mph 1018.8mb 77f 74f
8:12pm 2 3 mph 1018.7mb 77f 74f
8:06pm 2 3 mph 1018.5mb 77f 75f
8:00pm 2 3 mph 1018.5mb 77f 75f
7:54pm 2
mph
1018.4mb 77f 75f
7:48pm 2 3 mph 1018.4mb 77f 75f
7:42pm 3 5 mph 1018.4mb 77f 75f
7:36pm 5
mph
1018.4mb 77f 75f
7:30pm 5 6 mph 1018.3mb 76f 75f
7:24pm 3 5 mph 1018.3mb 76f 76f
7:18pm 5
mph
1018.3mb 77f 76f
7:12pm 5 6 mph 1018.3mb 77f 75f
7:06pm 3 5 mph 1018.3mb 77f 75f
7:00pm 3 5 mph 1018.3mb 77f 75f
6:54pm 5 6 mph 1018.3mb 77f 75f
6:48pm 3 5 mph 1018.2mb 77f 75f
6:42pm 3 5 mph 1018.3mb 77f 75f
6:36pm 3 5 mph 1018.3mb 77f 75f
6:30pm 5 6 mph 1018.2mb 77f 75f
6:24pm 5 6 mph 1018.1mb 77f 75f
6:18pm 6 7 mph 1018mb 77f 75f
6:12pm 6 7 mph 1018mb 77f 75f
6:06pm 6 7 mph 1018mb 76f 75f
6:00pm 6 7 mph 1018.1mb 76f 76f
5:54pm 7 8 mph 1018.1mb 76f 76f
5:48pm 7 8 mph 1018.2mb 76f 76f
5:42pm 7 8 mph 1018.1mb 76f 75f
5:36pm 7
mph
1018.1mb 76f 76f
5:30pm 8 9 mph 1018.1mb 76f 76f
5:24pm 7 9 mph 1018.1mb 76f 76f
5:18pm 7 8 mph 1018.1mb 76f 76f
5:12pm 8 9 mph 1018.1mb 76f 75f
5:06pm 7 8 mph 1018.1mb 76f 75f
5:00pm 3 8 mph 1018mb 75f 76f
4:54pm 7
mph
1018.1mb 76f 75f
4:48pm 7 8 mph 1018.1mb 76f 75f
4:42pm 7 8 mph 1018.1mb 76f 75f
4:36pm 8 9 mph 1018.1mb 76f 75f
4:30pm 8 9 mph 1018.1mb 76f 75f
4:24pm 8 9 mph 1018.1mb 76f 75f
4:18pm 6 7 mph 1018.1mb 76f -
4:12pm  -  mph 1018.1mb 76f 75f
4:06pm 8 9 mph 1018.1mb 76f 74f
4:00pm 7 8 mph - - -
3:54pm 8 9 mph - - -
3:48pm  -  mph - 75f 74f
3:42pm  -  mph - 75f 74f
3:36pm  -  mph - 75f 74f
3:30pm 7 8 mph 1018.3mb 75f 74f
3:24pm 8 9 mph 1018.4mb 75f 74f
3:18pm  -  mph 1018.5mb - 74f
3:12pm  -  mph 1018.6mb - 74f
3:06pm  -  mph 1018.6mb - 74f
3:00pm 8 9 mph - - 73f
2:54pm 8 9 mph - - 73f
2:48pm 7 9 mph - - 73f
2:42pm 8 9 mph - - 73f
2:36pm 9 11 mph - - 73f
2:30pm  -  mph - 75f -
2:24pm  -  mph - 75f -
2:18pm 8 9 mph 1018.7mb 75f 73f
2:12pm 8 9 mph 1018.7mb 75f 73f
2:06pm 8 10 mph 1018.8mb 75f 72f
2:00pm 8 9 mph 1018.9mb 75f 72f
1:54pm 8 9 mph 1018.8mb 75f 72f
1:48pm 8 9 mph 1018.8mb 75f 72f
1:42pm 8 9 mph 1018.8mb 75f 72f
1:36pm 8 9 mph 1018.9mb 75f 72f
1:30pm 8 9 mph 1019mb 75f 72f
1:24pm 6 9 mph 1019mb 75f 73f
1:18pm 8 9 mph 1018.9mb 75f 72f
1:12pm 8 10 mph 1019mb 75f 71f
1:06pm 9 10 mph 1019.1mb 75f 71f
1:00pm 9 10 mph 1019.1mb 75f 71f
12:54pm 9 11 mph 1019.2mb 75f 71f
12:48pm 10 13 mph 1019.2mb 75f 71f
12:42pm 11 13 mph 1019.2mb 75f 71f
12:36pm 10 13 mph 1019.3mb 75f 71f
12:30pm  -  mph - - 71f
12:24pm  -  mph - - 71f
12:18pm 10 13 mph 1019.5mb 75f 71f
12:12pm 10 11 mph 1019.5mb 75f 71f
12:06pm 9 11 mph 1019.6mb 74f 71f
12:00pm 8 10 mph 1019.6mb 74f 71f
11:54am 10 13 mph 1019.7mb 74f 71f
11:48am  -  mph - 74f 70f
11:42am  -  mph - 75f 70f
11:36am  -  mph - 75f 70f
11:30am 10 15 mph 1019.8mb 75f 70f
11:24am 10 15 mph 1020mb 75f 70f
11:18am 11 14 mph 1019.8mb 75f 70f
11:12am  -  mph - - 70f
11:06am  -  mph - - 70f
11:00am 11 14 mph 1019.6mb 75f 70f
10:54am 11 14 mph 1019.4mb 74f 70f
10:48am 3 7 mph 1019.5mb 74f 71f
10:42am 10 13 mph 1019.4mb 74f 70f
10:36am 10 11 mph 1019.3mb 74f 70f
10:30am 11 14 mph 1019.2mb 74f 70f
10:24am 7 14 mph 1019.2mb 74f 71f
10:18am 11 13 mph 1019.2mb 74f 70f
10:12am 10 13 mph 1019.2mb 74f 70f
10:06am 11 15 mph 1019.1mb 74f 70f
10:00am 10 13 mph 1019.1mb 74f 71f
9:54am 10 11 mph 1019.1mb 74f 70f
9:48am 11 14 mph 1019.1mb 74f 70f
9:18am  -  mph - 74f 70f
9:12am  -  mph - 74f 69f
9:06am  -  mph - 74f 70f
9:00am  -  mph - 74f 70f
8:54am  -  mph - 74f 70f
8:48am  -  mph - 74f 69f
8:42am  -  mph - 74f 69f
8:36am  -  mph - 74f 69f
8:30am  -  mph - 74f 69f
8:24am  -  mph - 74f 69f
8:18am  -  mph - 74f 69f
8:12am  -  mph - 74f 69f
8:06am  -  mph - 74f 69f
8:00am 13 14 mph 1018.5mb 74f 69f
7:54am 14 16 mph 1018.4mb 74f 70f
7:48am  -  mph - 74f 70f
7:42am  -  mph - 74f 69f
7:36am  -  mph - 74f 69f
7:30am  -  mph - - 69f
7:24am  -  mph - - 69f
7:18am 11 14 mph 1018.3mb 75f 69f
7:12am 11 14 mph 1018.2mb 75f 69f
7:06am 11 13 mph 1018.2mb 75f 70f
7:00am 11 13 mph 1018.1mb 75f 70f
6:54am 11 14 mph 1018mb 75f 70f
6:48am 13 14 mph 1017.8mb 75f 70f
6:42am 13 14 mph 1017.8mb 75f 70f
6:36am 13 14 mph 1017.7mb 75f 70f
6:30am 11 15 mph 1017.6mb 74f 71f
6:24am 11 14 mph 1017.5mb 74f 71f
6:18am 11 13 mph 1017.4mb 74f 72f
6:12am 14 17 mph 1017.4mb 74f 72f
6:06am 13 15 mph 1017.4mb 74f 72f
6:00am 14 16 mph 1017.3mb 74f 72f
5:54am 15 17 mph 1017.3mb 74f 72f
5:48am 14 16 mph 1017.2mb 74f 72f
1:30am 17 20 mph 1017.2mb 74f 74f
1:24am 17 20 mph 1017.3mb 74f 74f
1:18am 15 18 mph 1017.4mb 74f 74f
1:12am 14 16 mph 1017.4mb 74f 74f
1:06am 14 17 mph 1017.5mb 74f 74f
1:00am 10 13 mph 1017.5mb 74f 74f
12:54am 13 15 mph 1017.4mb 74f 74f
12:48am 14 16 mph 1017.4mb 74f 74f
12:42am 14 17 mph 1017.4mb 74f 74f
12:36am 13 15 mph 1017.4mb 75f 74f
12:30am 14 16 mph 1017.4mb 75f 74f
12:24am 11 14 mph 1017.4mb 75f 73f
12:18am 6 8 mph 1017.4mb 75f 71f
12:12am 7 9 mph 1017.4mb 74f 71f
12:06am 9 11 mph 1017.5mb 74f 73f
12:00am 11 14 mph - 74f 73f
Wed 08/26 11:54pm 11 14 mph - 75f 73f
11:48pm 6 7 mph 1017.3mb 75f 70f
11:42pm 7 9 mph 1017.3mb 75f 72f
11:36pm 10 11 mph 1017.3mb 75f 72f
11:30pm 7 8 mph 1017.3mb 76f 71f
11:24pm 6 7 mph 1017.4mb 76f 71f
11:18pm 6 7 mph 1017.4mb 76f 71f
11:12pm 6
mph
1017.3mb 75f 70f
11:06pm 6
mph
1017.3mb 75f 71f
11:00pm 5 6 mph 1017.4mb 76f 71f
10:54pm 6 7 mph 1017.4mb 75f 71f
10:48pm 5 6 mph 1017.4mb 76f 71f
10:42pm 5 6 mph 1017.4mb 76f 71f
10:36pm 3 5 mph 1017.4mb 76f 71f
10:30pm 5 6 mph 1017.3mb 76f 72f
10:24pm 6 7 mph 1017.2mb 75f 72f
10:18pm 6 7 mph 1017.1mb 75f 73f
10:12pm 7 8 mph 1017.1mb 76f 73f
10:06pm 6 7 mph 1017.1mb 76f 72f
10:00pm 6 7 mph 1017mb 76f 73f
9:54pm 7
mph
1017mb 76f 73f
9:48pm 6 7 mph 1016.9mb 77f 73f
9:42pm 6 7 mph 1016.8mb 77f 73f
9:36pm 6 7 mph 1016.7mb 77f 73f
9:30pm 6 7 mph 1016.7mb 77f 73f
9:24pm 5 6 mph 1016.7mb 78f 73f
9:18pm 5 7 mph 1016.8mb 78f 73f
9:12pm 5 6 mph 1016.7mb 78f 73f
9:06pm 5 6 mph 1016.7mb 78f 74f
9:00pm 5 6 mph 1016.7mb 78f 74f
8:54pm 6
mph
1016.6mb 78f 74f
8:48pm 6 7 mph 1016.6mb 78f 75f
8:42pm 6 7 mph 1016.5mb 78f 75f
8:36pm 7 8 mph 1016.5mb 78f 75f
8:30pm 7 8 mph 1016.5mb 78f 75f
8:24pm 6 7 mph 1016.5mb 78f 74f
8:18pm 6
mph
1016.5mb 78f 74f
8:12pm 5 6 mph 1016.4mb 78f 74f
8:06pm 5 6 mph 1016.3mb 78f 74f
8:00pm 5 6 mph 1016.3mb 78f 75f
7:54pm 6 8 mph 1016.2mb 78f 75f
7:48pm 1 3 mph 1016.2mb 78f 75f
7:42pm 1 3 mph 1016mb 78f 76f
7:36pm 3 5 mph 1015.9mb 78f 75f
7:30pm 1 2 mph 1015.8mb 78f 76f
7:24pm 2 3 mph 1015.7mb 78f 76f
7:18pm 2
mph
1015.6mb 78f 76f
7:12pm  -  2 mph 1015.6mb 78f 76f
7:06pm 1 2 mph 1015.6mb 78f 76f
7:00pm 1 2 mph 1015.6mb 78f 76f
6:54pm  -  mph 1015.5mb 78f 76f
6:48pm  -  1 mph 1015.4mb 78f 76f
6:42pm  -  1 mph 1015.3mb 78f 76f
6:36pm  -  1 mph 1015.3mb 78f 76f
6:30pm  -  mph 1015.3mb 78f 76f